Loading...
Boeing Field/King County International Airport

KBFI

Code AITA: BFI

Seattle, Washington, United States

13.9°

Rosée: 11.1

Vitesse du vent

8 kt

Direction: 210° /

Altimètre

29.97 Hg

QNH : 1015

KBFI 191653Z 21008G19KT 10SM BKN013 14/11 A2997 RMK AO2 SLP148 T01390111


Boeing Field/King County International Airport

Élévation

7.0 mètres

Ville

Seattle

Localisation

Washington

Pays

United States

Nouvelle recherche